createdAt,value
2022-09-27T00:02:29.497Z,8.51
2022-09-27T00:05:02.688Z,8.48
2022-09-27T00:07:35.086Z,8.45
2022-09-27T00:10:08.778Z,8.43
2022-09-27T00:12:41.330Z,8.36
2022-09-27T00:15:14.989Z,8.30
2022-09-27T00:17:47.420Z,8.24
2022-09-27T00:20:21.125Z,8.21
2022-09-27T00:22:53.698Z,8.16
2022-09-27T00:25:26.179Z,8.11
2022-09-27T00:27:58.506Z,8.11
2022-09-27T00:30:30.951Z,8.12
2022-09-27T00:33:03.396Z,8.12
2022-09-27T00:35:35.969Z,8.11
2022-09-27T00:38:08.389Z,8.11
2022-09-27T00:40:43.634Z,8.10
2022-09-27T00:43:21.400Z,8.09
2022-09-27T00:45:58.878Z,8.08
2022-09-27T00:48:34.838Z,8.08
2022-09-27T00:51:10.190Z,8.09
2022-09-27T00:53:47.438Z,8.08
2022-09-27T00:56:24.086Z,8.06
2022-09-27T00:59:03.869Z,8.07
2022-09-27T01:01:40.146Z,8.05
2022-09-27T01:04:17.075Z,8.02
2022-09-27T01:06:50.186Z,8.01
2022-09-27T01:09:23.428Z,7.99
2022-09-27T01:11:59.785Z,7.99
2022-09-27T01:14:48.876Z,7.91
2022-09-27T01:17:36.941Z,7.94
2022-09-27T01:20:26.074Z,7.94
2022-09-27T01:23:16.665Z,7.90
2022-09-27T01:26:04.067Z,7.88
2022-09-27T01:28:56.932Z,7.85
2022-09-27T01:31:37.672Z,7.81
2022-09-27T01:34:18.452Z,7.78
2022-09-27T01:37:01.553Z,7.75
2022-09-27T01:39:45.904Z,7.71
2022-09-27T01:42:44.223Z,7.69
2022-09-27T01:45:24.164Z,7.68
2022-09-27T01:48:12.433Z,7.64
2022-09-27T01:51:01.457Z,7.62
2022-09-27T01:53:38.945Z,7.59
2022-09-27T01:56:49.904Z,7.57
2022-09-27T01:59:31.833Z,7.55
2022-09-27T02:02:19.592Z,7.51
2022-09-27T02:05:18.673Z,7.46
2022-09-27T02:07:58.301Z,7.44
2022-09-27T02:10:35.833Z,7.44
2022-09-27T02:13:23.223Z,7.46
2022-09-27T02:16:08.926Z,7.40
2022-09-27T02:18:58.854Z,7.37
2022-09-27T02:21:42.481Z,7.36
2022-09-27T02:24:22.793Z,7.37
2022-09-27T02:27:08.534Z,7.34
2022-09-27T02:29:48.162Z,7.35
2022-09-27T02:32:21.343Z,7.32
2022-09-27T02:34:56.380Z,7.29
2022-09-27T02:37:29.364Z,7.29
2022-09-27T02:40:05.050Z,7.31
2022-09-27T02:42:43.673Z,7.34
2022-09-27T02:45:19.331Z,7.35
2022-09-27T02:48:08.233Z,7.38
2022-09-27T02:51:08.784Z,7.36
2022-09-27T02:54:02.373Z,7.33
2022-09-27T02:57:11.443Z,7.30
2022-09-27T03:00:12.801Z,7.26
2022-09-27T03:03:16.548Z,7.25
2022-09-27T03:06:09.633Z,7.28
2022-09-27T03:08:43.012Z,7.30
2022-09-27T03:11:15.823Z,7.29
2022-09-27T03:14:07.214Z,7.30
2022-09-27T03:16:42.600Z,7.26
2022-09-27T03:19:40.930Z,7.21
2022-09-27T03:22:41.256Z,7.13
2022-09-27T03:25:15.475Z,7.06
2022-09-27T03:27:48.904Z,7.04
2022-09-27T03:30:21.984Z,7.02
2022-09-27T03:32:56.294Z,7.00
2022-09-27T03:35:48.385Z,6.97
2022-09-27T03:38:22.113Z,6.96
2022-09-27T03:40:55.040Z,6.96
2022-09-27T03:43:28.189Z,6.93
2022-09-27T03:46:03.449Z,6.91
2022-09-27T03:48:41.424Z,6.88
2022-09-27T03:51:15.793Z,6.87
2022-09-27T03:53:49.593Z,6.86
2022-09-27T03:56:20.555Z,6.86
2022-09-27T03:58:53.314Z,6.80
2022-09-27T04:01:28.152Z,6.82
2022-09-27T04:04:01.941Z,6.80
2022-09-27T04:06:39.500Z,6.79
2022-09-27T04:09:15.803Z,6.76
2022-09-27T04:12:03.584Z,6.74
2022-09-27T04:14:36.604Z,6.67
2022-09-27T04:17:27.885Z,6.61
2022-09-27T04:20:19.234Z,6.58
2022-09-27T04:22:50.113Z,6.55
2022-09-27T04:25:22.934Z,6.47
2022-09-27T04:27:56.384Z,6.44
2022-09-27T04:30:30.829Z,6.42
2022-09-27T04:33:04.414Z,6.39
2022-09-27T04:36:29.757Z,6.42
2022-09-27T04:39:15.720Z,6.46
2022-09-27T04:41:52.104Z,6.49
2022-09-27T04:44:25.723Z,6.75
2022-09-27T04:47:00.957Z,6.88
2022-09-27T04:49:33.775Z,7.00
2022-09-27T04:52:07.473Z,7.05
2022-09-27T04:54:40.711Z,6.99
2022-09-27T04:57:19.695Z,6.98
2022-09-27T04:59:52.553Z,7.04
2022-09-27T05:02:25.891Z,7.12
2022-09-27T05:05:19.293Z,7.34
2022-09-27T05:07:52.124Z,7.47
2022-09-27T05:10:34.414Z,7.58
2022-09-27T05:13:09.532Z,7.64
2022-09-27T05:15:42.794Z,7.65
2022-09-27T05:18:40.323Z,7.67
2022-09-27T05:21:33.604Z,7.76
2022-09-27T05:24:07.026Z,7.89
2022-09-27T05:26:40.063Z,7.97
2022-09-27T05:29:15.498Z,8.00
2022-09-27T05:31:50.380Z,8.05
2022-09-27T05:34:23.316Z,8.09
2022-09-27T05:37:03.904Z,8.10
2022-09-27T05:39:41.123Z,8.11
2022-09-27T05:42:15.884Z,8.13
2022-09-27T05:44:48.965Z,8.14
2022-09-27T05:47:21.903Z,8.20
2022-09-27T05:49:56.275Z,8.25
2022-09-27T05:52:30.224Z,8.32
2022-09-27T05:55:03.350Z,8.41
2022-09-27T05:57:38.386Z,8.54
2022-09-27T06:00:15.643Z,8.64
2022-09-27T06:03:00.592Z,8.74
2022-09-27T06:06:11.004Z,9.02
2022-09-27T06:08:50.147Z,9.28
2022-09-27T06:11:25.763Z,9.43
2022-09-27T06:13:59.523Z,9.53
2022-09-27T06:16:34.661Z,9.78
2022-09-27T06:19:08.299Z,10.03
2022-09-27T06:21:41.213Z,10.26
2022-09-27T06:24:14.314Z,10.47
2022-09-27T06:26:47.439Z,10.64
2022-09-27T06:29:29.665Z,10.73
2022-09-27T06:32:06.724Z,11.00
2022-09-27T06:34:49.801Z,11.27
2022-09-27T06:37:26.900Z,11.47
2022-09-27T06:39:59.917Z,11.67
2022-09-27T06:42:51.664Z,11.89
2022-09-27T06:45:44.732Z,12.04
2022-09-27T06:48:50.234Z,12.17
2022-09-27T06:51:28.003Z,12.18
2022-09-27T06:54:01.894Z,12.13
2022-09-27T06:56:37.721Z,12.36
2022-09-27T06:59:28.213Z,12.60
2022-09-27T07:02:36.240Z,12.44
2022-09-27T07:05:39.143Z,12.30
2022-09-27T07:08:29.153Z,12.22
2022-09-27T07:11:06.888Z,12.31
2022-09-27T07:13:43.643Z,12.29
2022-09-27T07:16:19.520Z,12.34
2022-09-27T07:18:53.677Z,12.39
2022-09-27T07:21:26.956Z,12.25
2022-09-27T07:24:01.193Z,12.37
2022-09-27T07:26:32.358Z,12.02
2022-09-27T07:29:05.164Z,11.99
2022-09-27T07:31:38.714Z,12.02
2022-09-27T07:34:11.898Z,12.24
2022-09-27T07:36:44.919Z,12.31
2022-09-27T07:39:16.581Z,12.32
2022-09-27T07:41:50.114Z,12.34
2022-09-27T07:44:23.264Z,12.41
2022-09-27T07:47:14.593Z,12.42
2022-09-27T07:50:21.023Z,12.40
2022-09-27T07:53:06.840Z,12.29
2022-09-27T07:55:37.879Z,12.46
2022-09-27T07:58:19.563Z,12.42
2022-09-27T08:00:54.135Z,12.54
2022-09-27T08:03:27.512Z,12.57
2022-09-27T08:06:03.793Z,12.62
2022-09-27T08:08:37.400Z,12.80
2022-09-27T08:11:18.673Z,12.82
2022-09-27T08:13:54.944Z,12.75
2022-09-27T08:16:31.173Z,13.00
2022-09-27T08:19:19.822Z,13.13
2022-09-27T08:22:12.393Z,13.28
2022-09-27T08:25:00.099Z,13.40
2022-09-27T08:27:45.153Z,13.68
2022-09-27T08:30:26.436Z,13.82
2022-09-27T08:33:04.183Z,13.79
2022-09-27T08:35:37.210Z,14.02
2022-09-27T08:38:12.002Z,14.15
2022-09-27T08:40:55.475Z,14.39
2022-09-27T08:43:42.998Z,14.25
2022-09-27T08:46:29.190Z,14.12
2022-09-27T08:49:11.403Z,14.30
2022-09-27T08:51:47.203Z,14.27
2022-09-27T08:54:23.805Z,14.39
2022-09-27T08:57:02.831Z,14.59
2022-09-27T08:59:41.813Z,14.77
2022-09-27T09:02:22.542Z,14.94
2022-09-27T09:05:02.938Z,15.14
2022-09-27T09:07:57.238Z,15.32
2022-09-27T09:11:01.097Z,15.35
2022-09-27T09:13:51.791Z,15.16
2022-09-27T09:16:34.363Z,15.31
2022-09-27T09:19:31.796Z,15.25
2022-09-27T09:22:37.952Z,14.86
2022-09-27T09:25:23.476Z,14.69
2022-09-27T09:28:13.696Z,14.87
2022-09-27T09:30:57.335Z,14.76
2022-09-27T09:33:31.373Z,14.50
2022-09-27T09:36:14.343Z,14.57
2022-09-27T09:38:52.548Z,14.62
2022-09-27T09:41:31.467Z,14.81
2022-09-27T09:44:12.419Z,14.83
2022-09-27T09:46:48.110Z,14.73
2022-09-27T09:49:25.874Z,14.62
2022-09-27T09:52:06.496Z,14.69
2022-09-27T09:54:46.609Z,14.93
2022-09-27T09:57:25.495Z,14.97
2022-09-27T10:00:02.646Z,15.08
2022-09-27T10:02:40.414Z,14.92
2022-09-27T10:05:20.931Z,14.73
2022-09-27T10:07:59.564Z,14.67
2022-09-27T10:10:32.827Z,14.62
2022-09-27T10:13:32.734Z,14.72
2022-09-27T10:16:10.343Z,14.87
2022-09-27T10:18:49.049Z,15.01
2022-09-27T10:21:30.714Z,15.13
2022-09-27T10:24:17.398Z,15.22
2022-09-27T10:27:06.833Z,14.94
2022-09-27T10:29:42.904Z,14.94
2022-09-27T10:32:33.487Z,14.99
2022-09-27T10:35:38.453Z,15.33
2022-09-27T10:38:28.095Z,15.10
2022-09-27T10:41:28.775Z,15.16
2022-09-27T10:44:26.952Z,15.27
2022-09-27T10:47:23.217Z,15.49
2022-09-27T10:50:38.611Z,15.36
2022-09-27T10:53:25.689Z,15.19
2022-09-27T10:56:05.724Z,15.16
2022-09-27T10:58:42.785Z,15.21
2022-09-27T11:01:18.200Z,15.28
2022-09-27T11:04:20.723Z,15.36
2022-09-27T11:06:54.604Z,15.27
2022-09-27T11:09:28.010Z,15.28
2022-09-27T11:12:11.257Z,15.51
2022-09-27T11:14:44.563Z,15.57
2022-09-27T11:17:24.115Z,15.59
2022-09-27T11:20:16.663Z,15.64
2022-09-27T11:23:15.085Z,15.64
2022-09-27T11:26:00.986Z,15.75
2022-09-27T11:28:46.907Z,16.01
2022-09-27T11:31:43.326Z,15.98
2022-09-27T11:34:32.093Z,15.63
2022-09-27T11:37:19.372Z,15.89
2022-09-27T11:40:08.481Z,16.21
2022-09-27T11:43:00.507Z,16.34
2022-09-27T11:46:14.400Z,16.28
2022-09-27T11:48:57.750Z,16.21
2022-09-27T11:51:50.437Z,16.15
2022-09-27T11:54:44.248Z,15.95
2022-09-27T11:57:26.815Z,16.15
2022-09-27T12:00:16.737Z,16.19
2022-09-27T12:03:24.260Z,16.08
2022-09-27T12:06:13.779Z,15.98
2022-09-27T12:08:58.794Z,15.92
2022-09-27T12:11:36.973Z,16.21
2022-09-27T12:14:16.104Z,16.21
2022-09-27T12:16:51.143Z,16.15
2022-09-27T12:19:29.334Z,16.20
2022-09-27T12:22:13.467Z,16.41
2022-09-27T12:24:49.934Z,16.28
2022-09-27T12:27:46.996Z,16.31
2022-09-27T12:30:24.011Z,16.41
2022-09-27T12:33:07.884Z,16.25
2022-09-27T12:35:48.543Z,16.39
2022-09-27T12:38:26.074Z,16.27
2022-09-27T12:41:01.391Z,16.36
2022-09-27T12:43:51.971Z,16.46
2022-09-27T12:46:46.282Z,16.53
2022-09-27T12:49:29.926Z,16.57
2022-09-27T12:52:08.556Z,16.30
2022-09-27T12:55:03.747Z,16.19
2022-09-27T12:57:49.964Z,16.43
2022-09-27T13:00:28.103Z,16.51
2022-09-27T13:03:25.852Z,16.59
2022-09-27T13:06:50.923Z,16.60
2022-09-27T13:09:58.584Z,16.56
2022-09-27T13:12:35.143Z,16.56
2022-09-27T13:15:17.773Z,16.60
2022-09-27T13:17:57.133Z,16.59
2022-09-27T13:20:51.982Z,16.68
2022-09-27T13:24:02.630Z,16.74
2022-09-27T13:26:56.855Z,16.68
2022-09-27T13:29:34.416Z,16.73
2022-09-27T13:32:28.850Z,16.54
2022-09-27T13:35:24.718Z,16.62
2022-09-27T13:38:25.764Z,16.66
2022-09-27T13:41:18.488Z,16.60
2022-09-27T13:44:14.332Z,16.53
2022-09-27T13:47:01.350Z,16.56
2022-09-27T13:49:38.854Z,16.51
2022-09-27T13:52:34.829Z,16.37
2022-09-27T13:55:46.181Z,16.50
2022-09-27T13:58:57.943Z,16.56
2022-09-27T14:01:53.375Z,16.63
2022-09-27T14:04:37.231Z,16.73
2022-09-27T14:07:15.623Z,16.81
2022-09-27T14:09:54.069Z,16.80
2022-09-27T14:12:34.486Z,16.72
2022-09-27T14:15:10.728Z,16.63
2022-09-27T14:17:47.333Z,16.61
2022-09-27T14:20:42.259Z,16.67
2022-09-27T14:23:26.473Z,16.50
2022-09-27T14:25:59.978Z,16.46
2022-09-27T14:28:32.201Z,16.34
2022-09-27T14:31:22.878Z,16.31
2022-09-27T14:34:14.119Z,16.18
2022-09-27T14:37:09.150Z,16.06
2022-09-27T14:39:57.364Z,16.09
2022-09-27T14:42:38.403Z,16.05
2022-09-27T14:45:22.873Z,15.93
2022-09-27T14:47:56.492Z,15.92
2022-09-27T14:50:31.536Z,15.80
2022-09-27T14:53:06.696Z,15.67
2022-09-27T14:55:40.624Z,15.70
2022-09-27T14:58:36.039Z,15.65
2022-09-27T15:01:18.771Z,15.63
2022-09-27T15:03:54.075Z,15.52
2022-09-27T15:06:27.331Z,15.55
2022-09-27T15:09:01.832Z,15.56
2022-09-27T15:11:36.018Z,15.60
2022-09-27T15:14:13.514Z,15.63
2022-09-27T15:16:48.271Z,15.57
2022-09-27T15:19:27.374Z,15.54
2022-09-27T15:22:20.832Z,15.53
2022-09-27T15:24:53.852Z,15.54
2022-09-27T15:27:29.254Z,15.55
2022-09-27T15:30:08.439Z,15.50
2022-09-27T15:32:42.033Z,15.43
2022-09-27T15:35:26.451Z,15.36
2022-09-27T15:38:23.133Z,15.35
2022-09-27T15:41:16.663Z,15.29
2022-09-27T15:43:51.213Z,15.28
2022-09-27T15:46:44.506Z,15.25
2022-09-27T15:49:34.544Z,15.21
2022-09-27T15:52:08.165Z,15.12
2022-09-27T15:54:40.919Z,15.11
2022-09-27T15:57:15.744Z,15.05
2022-09-27T15:59:49.803Z,15.07
2022-09-27T16:02:25.526Z,15.01
2022-09-27T16:04:58.284Z,14.98
2022-09-27T16:07:31.653Z,14.99
2022-09-27T16:10:07.454Z,14.98
2022-09-27T16:13:32.738Z,14.99
2022-09-27T16:17:16.114Z,15.03
2022-09-27T16:20:40.405Z,15.08
2022-09-27T16:24:06.064Z,14.90
2022-09-27T16:27:32.003Z,14.79
2022-09-27T16:31:23.513Z,14.52
2022-09-27T16:34:05.644Z,14.29
2022-09-27T16:36:40.599Z,14.28
2022-09-27T16:39:15.569Z,14.24
2022-09-27T16:41:49.033Z,14.23
2022-09-27T16:44:19.869Z,14.14
2022-09-27T16:46:52.506Z,13.95
2022-09-27T16:49:42.641Z,13.96
2022-09-27T16:52:17.554Z,13.83
2022-09-27T16:54:50.874Z,13.77
2022-09-27T16:57:24.029Z,13.81
2022-09-27T16:59:57.251Z,13.79
2022-09-27T17:02:30.194Z,13.76
2022-09-27T17:05:02.833Z,13.73
2022-09-27T17:07:35.943Z,13.63
2022-09-27T17:10:10.562Z,13.59
2022-09-27T17:12:43.361Z,13.53
2022-09-27T17:15:17.331Z,13.47
2022-09-27T17:17:52.438Z,13.40
2022-09-27T17:20:26.235Z,13.34
2022-09-27T17:22:59.513Z,13.22
2022-09-27T17:25:30.693Z,13.16
2022-09-27T17:28:03.487Z,13.07
2022-09-27T17:30:40.093Z,12.99
2022-09-27T17:33:13.883Z,12.98
2022-09-27T17:35:48.593Z,13.03
2022-09-27T17:38:21.252Z,13.06
2022-09-27T17:41:03.697Z,13.09
2022-09-27T17:43:50.931Z,13.11
2022-09-27T17:46:26.643Z,13.12
2022-09-27T17:49:17.947Z,13.12
2022-09-27T17:51:52.445Z,13.06
2022-09-27T17:54:28.355Z,12.98
2022-09-27T17:57:01.061Z,12.85
2022-09-27T17:59:35.425Z,12.81
2022-09-27T18:02:08.246Z,12.76
2022-09-27T18:04:41.444Z,12.75
2022-09-27T18:07:14.182Z,12.76
2022-09-27T18:09:47.073Z,12.76
2022-09-27T18:12:22.334Z,12.74
2022-09-27T18:14:58.543Z,12.71
2022-09-27T18:17:32.049Z,12.67
2022-09-27T18:20:03.475Z,12.65
2022-09-27T18:22:37.266Z,12.56
2022-09-27T18:25:12.051Z,12.56
2022-09-27T18:27:45.093Z,12.59
2022-09-27T18:30:18.487Z,12.62
2022-09-27T18:32:51.737Z,12.61
2022-09-27T18:35:25.634Z,12.55
2022-09-27T18:37:58.683Z,12.52
2022-09-27T18:40:51.931Z,12.51
2022-09-27T18:43:24.167Z,12.46
2022-09-27T18:46:04.366Z,12.44
2022-09-27T18:48:50.444Z,12.34
2022-09-27T18:51:27.268Z,12.30
2022-09-27T18:54:02.087Z,12.24
2022-09-27T18:56:39.833Z,12.17
2022-09-27T18:59:13.583Z,12.11
2022-09-27T19:01:48.257Z,12.03
2022-09-27T19:04:26.095Z,11.98
2022-09-27T19:06:59.273Z,11.98
2022-09-27T19:09:33.289Z,11.93
2022-09-27T19:12:06.904Z,11.89
2022-09-27T19:14:42.928Z,11.86
2022-09-27T19:17:16.174Z,11.86
2022-09-27T19:19:48.934Z,11.85
2022-09-27T19:22:23.754Z,11.80
2022-09-27T19:24:56.827Z,11.79
2022-09-27T19:27:31.844Z,11.80
2022-09-27T19:30:05.154Z,11.80
2022-09-27T19:32:38.024Z,11.81
2022-09-27T19:35:12.083Z,11.78
2022-09-27T19:37:45.182Z,11.76
2022-09-27T19:40:18.183Z,11.73
2022-09-27T19:42:54.856Z,11.66
2022-09-27T19:45:27.717Z,11.63
2022-09-27T19:48:00.406Z,11.65
2022-09-27T19:50:33.218Z,11.61
2022-09-27T19:53:07.264Z,11.59
2022-09-27T19:55:40.440Z,11.57
2022-09-27T19:58:13.721Z,11.54
2022-09-27T20:00:47.464Z,11.55
2022-09-27T20:03:20.154Z,11.53
2022-09-27T20:05:57.492Z,11.51
2022-09-27T20:08:31.484Z,11.53
2022-09-27T20:11:06.749Z,11.53
2022-09-27T20:13:40.498Z,11.51
2022-09-27T20:16:15.524Z,11.53
2022-09-27T20:18:50.402Z,11.54
2022-09-27T20:21:24.755Z,11.55
2022-09-27T20:23:58.675Z,11.57
2022-09-27T20:26:32.784Z,11.58
2022-09-27T20:29:06.797Z,11.57
2022-09-27T20:31:55.786Z,11.58
2022-09-27T20:34:48.924Z,11.58
2022-09-27T20:37:23.633Z,11.58
2022-09-27T20:39:56.584Z,11.58
2022-09-27T20:42:29.174Z,11.59
2022-09-27T20:45:01.844Z,11.58
2022-09-27T20:47:34.611Z,11.57
2022-09-27T20:50:08.483Z,11.57
2022-09-27T20:52:42.294Z,11.54
2022-09-27T20:55:15.603Z,11.52
2022-09-27T20:57:57.236Z,11.52
2022-09-27T21:00:30.648Z,11.43
2022-09-27T21:03:03.524Z,11.44
2022-09-27T21:05:36.081Z,11.43
2022-09-27T21:08:09.285Z,11.43
2022-09-27T21:10:42.123Z,11.45
2022-09-27T21:13:14.812Z,11.45
2022-09-27T21:15:47.914Z,11.43
2022-09-27T21:18:21.141Z,11.42
2022-09-27T21:21:00.953Z,11.41
2022-09-27T21:23:38.083Z,11.41
2022-09-27T21:26:14.803Z,11.39
2022-09-27T21:28:49.733Z,11.37
2022-09-27T21:31:24.446Z,11.34
2022-09-27T21:33:59.389Z,11.30
2022-09-27T21:36:34.030Z,11.27
2022-09-27T21:39:08.948Z,11.26
2022-09-27T21:41:44.923Z,11.23
2022-09-27T21:44:17.905Z,11.18
2022-09-27T21:46:52.362Z,11.14
2022-09-27T21:49:25.574Z,11.13
2022-09-27T21:51:58.244Z,11.12
2022-09-27T21:54:31.841Z,11.09
2022-09-27T21:57:03.173Z,11.06
2022-09-27T21:59:35.857Z,10.99
2022-09-27T22:02:09.058Z,11.01
2022-09-27T22:04:41.843Z,10.98
2022-09-27T22:07:14.393Z,10.97
2022-09-27T22:09:47.084Z,10.95
2022-09-27T22:12:19.866Z,10.96
2022-09-27T22:14:52.564Z,10.95
2022-09-27T22:17:25.201Z,10.95
2022-09-27T22:19:57.898Z,10.92
2022-09-27T22:22:30.803Z,10.89
2022-09-27T22:25:03.454Z,10.85
2022-09-27T22:27:36.163Z,10.84
2022-09-27T22:30:11.764Z,10.84
2022-09-27T22:32:46.540Z,10.81
2022-09-27T22:35:19.531Z,10.83
2022-09-27T22:37:53.114Z,10.83
2022-09-27T22:40:25.902Z,10.82
2022-09-27T22:42:59.413Z,10.81
2022-09-27T22:45:32.105Z,10.80
2022-09-27T22:48:05.231Z,10.76
2022-09-27T22:50:39.857Z,10.75
2022-09-27T22:53:13.334Z,10.74
2022-09-27T22:56:00.671Z,10.72
2022-09-27T22:58:37.283Z,10.69
2022-09-27T23:01:16.339Z,10.68
2022-09-27T23:03:52.650Z,10.67
2022-09-27T23:06:25.945Z,10.65
2022-09-27T23:09:01.777Z,10.65
2022-09-27T23:11:34.453Z,10.61
2022-09-27T23:14:09.885Z,10.60
2022-09-27T23:16:42.666Z,10.57
2022-09-27T23:19:16.915Z,10.57
2022-09-27T23:21:50.383Z,10.56
2022-09-27T23:24:23.883Z,10.56
2022-09-27T23:27:10.443Z,10.56
2022-09-27T23:29:44.163Z,10.54
2022-09-27T23:32:16.937Z,10.53
2022-09-27T23:34:50.973Z,10.52
2022-09-27T23:37:23.644Z,10.46
2022-09-27T23:39:56.842Z,10.49
2022-09-27T23:42:29.526Z,10.48
2022-09-27T23:45:02.306Z,10.48
2022-09-27T23:47:35.123Z,10.47
2022-09-27T23:50:09.694Z,10.44
2022-09-27T23:52:43.857Z,10.42
2022-09-27T23:55:31.061Z,10.41
2022-09-27T23:58:04.134Z,10.42
